sensor_id;sensor_type;location;lat;lon;timestamp;noise_LAeq;noise_LA_min;noise_LA_max;noise_LA01;noise_LA95
60031;Laerm;45901;47.600;9.890;2022-12-20T00:01:08;52.30;46.97;61.94;;
60031;Laerm;45901;47.600;9.890;2022-12-20T00:03:36;53.53;46.97;58.86;;
60031;Laerm;45901;47.600;9.890;2022-12-20T00:06:05;52.72;46.84;59.30;;
60031;Laerm;45901;47.600;9.890;2022-12-20T00:08:33;50.26;46.91;54.91;;
60031;Laerm;45901;47.600;9.890;2022-12-20T00:11:03;51.23;46.76;55.42;;
60031;Laerm;45901;47.600;9.890;2022-12-20T00:13:32;51.14;46.97;58.28;;
60031;Laerm;45901;47.600;9.890;2022-12-20T00:16:04;48.89;46.91;51.30;;
60031;Laerm;45901;47.600;9.890;2022-12-20T00:18:32;48.47;46.69;51.53;;
60031;Laerm;45901;47.600;9.890;2022-12-20T00:21:00;49.88;46.57;58.40;;
60031;Laerm;45901;47.600;9.890;2022-12-20T00:23:29;48.97;46.91;51.95;;
60031;Laerm;45901;47.600;9.890;2022-12-20T00:26:01;48.46;46.55;50.56;;
60031;Laerm;45901;47.600;9.890;2022-12-20T00:28:29;48.40;46.97;50.76;;
60031;Laerm;45901;47.600;9.890;2022-12-20T00:30:57;48.30;46.55;50.44;;
60031;Laerm;45901;47.600;9.890;2022-12-20T00:33:24;48.28;46.64;50.59;;
60031;Laerm;45901;47.600;9.890;2022-12-20T00:35:53;48.50;46.82;50.96;;
60031;Laerm;45901;47.600;9.890;2022-12-20T00:38:21;48.58;46.50;51.16;;
60031;Laerm;45901;47.600;9.890;2022-12-20T00:41:00;48.01;46.52;50.14;;
60031;Laerm;45901;47.600;9.890;2022-12-20T00:43:28;48.04;46.45;50.16;;
60031;Laerm;45901;47.600;9.890;2022-12-20T00:45:55;48.22;46.69;50.57;;
60031;Laerm;45901;47.600;9.890;2022-12-20T00:48:22;48.22;46.59;50.64;;
60031;Laerm;45901;47.600;9.890;2022-12-20T00:50:50;48.14;46.45;50.43;;
60031;Laerm;45901;47.600;9.890;2022-12-20T00:53:17;48.14;46.57;50.26;;
60031;Laerm;45901;47.600;9.890;2022-12-20T00:55:46;48.32;46.66;50.91;;
60031;Laerm;45901;47.600;9.890;2022-12-20T00:58:14;48.46;46.66;50.56;;
60031;Laerm;45901;47.600;9.890;2022-12-20T01:00:42;48.56;46.50;53.28;;
60031;Laerm;45901;47.600;9.890;2022-12-20T01:03:09;48.18;46.57;50.39;;
60031;Laerm;45901;47.600;9.890;2022-12-20T01:05:36;48.10;46.33;50.81;;
60031;Laerm;45901;47.600;9.890;2022-12-20T01:08:04;48.03;46.48;50.35;;
60031;Laerm;45901;47.600;9.890;2022-12-20T01:10:32;48.08;46.43;51.75;;
60031;Laerm;45901;47.600;9.890;2022-12-20T01:12:59;48.06;46.50;50.31;;
60031;Laerm;45901;47.600;9.890;2022-12-20T01:15:28;48.06;46.50;50.52;;
60031;Laerm;45901;47.600;9.890;2022-12-20T01:17:56;48.04;46.36;50.22;;
60031;Laerm;45901;47.600;9.890;2022-12-20T01:20:23;48.02;46.48;50.41;;
60031;Laerm;45901;47.600;9.890;2022-12-20T01:22:50;48.01;46.38;50.20;;
60031;Laerm;45901;47.600;9.890;2022-12-20T01:25:18;48.06;46.28;50.41;;
60031;Laerm;45901;47.600;9.890;2022-12-20T01:27:45;48.06;46.43;50.10;;
60031;Laerm;45901;47.600;9.890;2022-12-20T01:30:13;48.26;46.62;50.69;;
60031;Laerm;45901;47.600;9.890;2022-12-20T01:32:41;48.45;46.25;52.05;;
60031;Laerm;45901;47.600;9.890;2022-12-20T01:35:09;48.25;46.05;51.33;;
60031;Laerm;45901;47.600;9.890;2022-12-20T01:37:36;48.07;46.45;50.74;;
60031;Laerm;45901;47.600;9.890;2022-12-20T01:40:05;47.98;46.25;50.53;;
60031;Laerm;45901;47.600;9.890;2022-12-20T01:42:35;47.96;46.59;50.40;;
60031;Laerm;45901;47.600;9.890;2022-12-20T01:45:08;47.97;46.43;50.23;;
60031;Laerm;45901;47.600;9.890;2022-12-20T01:47:40;47.96;46.40;50.10;;
60031;Laerm;45901;47.600;9.890;2022-12-20T01:50:08;48.08;46.40;50.23;;
60031;Laerm;45901;47.600;9.890;2022-12-20T01:52:38;48.08;46.57;50.42;;
60031;Laerm;45901;47.600;9.890;2022-12-20T01:55:11;48.33;46.23;50.92;;
60031;Laerm;45901;47.600;9.890;2022-12-20T01:57:43;49.02;46.62;52.63;;
60031;Laerm;45901;47.600;9.890;2022-12-20T02:00:13;48.12;46.43;50.86;;
60031;Laerm;45901;47.600;9.890;2022-12-20T02:02:45;48.20;46.48;51.41;;
60031;Laerm;45901;47.600;9.890;2022-12-20T02:05:15;48.86;46.76;51.41;;
60031;Laerm;45901;47.600;9.890;2022-12-20T02:07:43;49.19;46.78;51.37;;
60031;Laerm;45901;47.600;9.890;2022-12-20T02:10:12;49.29;46.62;51.84;;
60031;Laerm;45901;47.600;9.890;2022-12-20T02:12:42;48.98;46.87;51.08;;
60031;Laerm;45901;47.600;9.890;2022-12-20T02:15:30;48.76;46.57;51.31;;
60031;Laerm;45901;47.600;9.890;2022-12-20T02:18:15;48.10;46.48;50.61;;
60031;Laerm;45901;47.600;9.890;2022-12-20T02:21:01;48.01;46.50;50.20;;
60031;Laerm;45901;47.600;9.890;2022-12-20T02:24:16;48.44;46.52;52.57;;
60031;Laerm;45901;47.600;9.890;2022-12-20T02:27:16;49.41;46.59;56.85;;
60031;Laerm;45901;47.600;9.890;2022-12-20T02:30:14;52.32;46.59;58.15;;
60031;Laerm;45901;47.600;9.890;2022-12-20T02:32:52;48.07;46.43;50.72;;
60031;Laerm;45901;47.600;9.890;2022-12-20T02:35:23;47.98;46.43;50.68;;
60031;Laerm;45901;47.600;9.890;2022-12-20T02:37:53;47.96;46.30;50.26;;
60031;Laerm;45901;47.600;9.890;2022-12-20T02:40:24;48.36;46.69;51.35;;
60031;Laerm;45901;47.600;9.890;2022-12-20T02:42:54;48.67;46.52;50.97;;
60031;Laerm;45901;47.600;9.890;2022-12-20T02:45:27;48.35;46.57;50.76;;
60031;Laerm;45901;47.600;9.890;2022-12-20T02:48:01;48.38;46.66;50.77;;
60031;Laerm;45901;47.600;9.890;2022-12-20T02:50:33;48.31;46.38;50.95;;
60031;Laerm;45901;47.600;9.890;2022-12-20T02:53:02;48.13;46.50;50.74;;
60031;Laerm;45901;47.600;9.890;2022-12-20T02:55:40;48.04;46.50;50.36;;
60031;Laerm;45901;47.600;9.890;2022-12-20T02:58:15;47.97;46.40;50.60;;
60031;Laerm;45901;47.600;9.890;2022-12-20T03:00:46;48.07;46.33;50.58;;
60031;Laerm;45901;47.600;9.890;2022-12-20T03:03:15;48.11;46.38;51.19;;
60031;Laerm;45901;47.600;9.890;2022-12-20T03:05:52;47.97;46.43;50.00;;
60031;Laerm;45901;47.600;9.890;2022-12-20T03:08:19;47.95;46.30;50.12;;
60031;Laerm;45901;47.600;9.890;2022-12-20T03:10:48;47.96;46.50;50.14;;
60031;Laerm;45901;47.600;9.890;2022-12-20T03:13:16;48.03;46.48;50.12;;
60031;Laerm;45901;47.600;9.890;2022-12-20T03:15:45;48.11;46.55;50.31;;
60031;Laerm;45901;47.600;9.890;2022-12-20T03:18:12;48.01;46.36;50.13;;
60031;Laerm;45901;47.600;9.890;2022-12-20T03:20:40;48.00;46.23;50.13;;
60031;Laerm;45901;47.600;9.890;2022-12-20T03:23:07;48.11;46.18;50.32;;
60031;Laerm;45901;47.600;9.890;2022-12-20T03:25:35;48.05;46.25;50.22;;
60031;Laerm;45901;47.600;9.890;2022-12-20T03:28:02;48.16;46.66;50.57;;
60031;Laerm;45901;47.600;9.890;2022-12-20T03:30:30;48.21;46.45;50.87;;
60031;Laerm;45901;47.600;9.890;2022-12-20T03:32:58;48.10;46.52;51.58;;
60031;Laerm;45901;47.600;9.890;2022-12-20T03:35:26;48.12;46.10;52.60;;
60031;Laerm;45901;47.600;9.890;2022-12-20T03:37:53;48.04;46.43;50.57;;
60031;Laerm;45901;47.600;9.890;2022-12-20T03:40:21;48.07;46.34;50.57;;
60031;Laerm;45901;47.600;9.890;2022-12-20T03:42:48;48.05;46.43;50.29;;
60031;Laerm;45901;47.600;9.890;2022-12-20T03:45:16;48.18;46.57;52.11;;
60031;Laerm;45901;47.600;9.890;2022-12-20T03:47:43;48.07;46.45;51.55;;
60031;Laerm;45901;47.600;9.890;2022-12-20T03:50:12;47.96;46.48;50.10;;
60031;Laerm;45901;47.600;9.890;2022-12-20T03:52:40;48.07;46.52;51.10;;
60031;Laerm;45901;47.600;9.890;2022-12-20T03:55:08;48.17;46.43;50.84;;
60031;Laerm;45901;47.600;9.890;2022-12-20T03:57:37;48.16;46.62;52.34;;
60031;Laerm;45901;47.600;9.890;2022-12-20T04:00:06;48.20;46.62;51.43;;
60031;Laerm;45901;47.600;9.890;2022-12-20T04:02:34;48.07;46.33;50.45;;
60031;Laerm;45901;47.600;9.890;2022-12-20T04:05:01;48.05;46.52;50.62;;
60031;Laerm;45901;47.600;9.890;2022-12-20T04:07:30;48.09;46.52;50.70;;
60031;Laerm;45901;47.600;9.890;2022-12-20T04:09:57;47.99;46.45;50.56;;
60031;Laerm;45901;47.600;9.890;2022-12-20T04:12:24;47.96;46.15;50.15;;
60031;Laerm;45901;47.600;9.890;2022-12-20T04:14:51;47.99;46.33;50.44;;
60031;Laerm;45901;47.600;9.890;2022-12-20T04:17:19;48.03;46.23;52.45;;
60031;Laerm;45901;47.600;9.890;2022-12-20T04:19:46;48.00;46.33;50.66;;
60031;Laerm;45901;47.600;9.890;2022-12-20T04:22:13;48.19;46.69;51.21;;
60031;Laerm;45901;47.600;9.890;2022-12-20T04:24:42;48.20;46.50;50.57;;
60031;Laerm;45901;47.600;9.890;2022-12-20T04:27:09;48.12;46.38;50.90;;
60031;Laerm;45901;47.600;9.890;2022-12-20T04:29:36;48.03;46.48;53.20;;
60031;Laerm;45901;47.600;9.890;2022-12-20T04:32:04;48.02;46.33;50.84;;
60031;Laerm;45901;47.600;9.890;2022-12-20T04:34:31;55.51;46.48;57.90;;
60031;Laerm;45901;47.600;9.890;2022-12-20T04:36:58;54.54;46.62;57.78;;
60031;Laerm;45901;47.600;9.890;2022-12-20T04:39:25;50.56;46.35;55.49;;
60031;Laerm;45901;47.600;9.890;2022-12-20T04:41:54;47.98;46.40;50.08;;
60031;Laerm;45901;47.600;9.890;2022-12-20T04:44:22;47.98;46.30;50.12;;
60031;Laerm;45901;47.600;9.890;2022-12-20T04:46:49;47.98;46.35;50.08;;
60031;Laerm;45901;47.600;9.890;2022-12-20T04:49:16;47.98;46.33;50.24;;
60031;Laerm;45901;47.600;9.890;2022-12-20T04:51:43;47.97;46.50;50.45;;
60031;Laerm;45901;47.600;9.890;2022-12-20T04:54:11;47.97;46.40;50.25;;
60031;Laerm;45901;47.600;9.890;2022-12-20T04:56:37;48.02;46.15;50.47;;
60031;Laerm;45901;47.600;9.890;2022-12-20T04:59:06;47.99;46.52;50.44;;
60031;Laerm;45901;47.600;9.890;2022-12-20T05:01:33;48.47;46.54;51.13;;
60031;Laerm;45901;47.600;9.890;2022-12-20T05:04:00;48.53;46.45;53.57;;
60031;Laerm;45901;47.600;9.890;2022-12-20T05:06:28;48.43;46.28;51.23;;
60031;Laerm;45901;47.600;9.890;2022-12-20T05:08:55;48.64;46.64;51.30;;
60031;Laerm;45901;47.600;9.890;2022-12-20T05:11:22;48.63;46.78;51.04;;
60031;Laerm;45901;47.600;9.890;2022-12-20T05:13:50;48.43;46.50;51.17;;
60031;Laerm;45901;47.600;9.890;2022-12-20T05:16:19;48.46;46.52;50.70;;
60031;Laerm;45901;47.600;9.890;2022-12-20T05:18:46;48.86;46.84;51.75;;
60031;Laerm;45901;47.600;9.890;2022-12-20T05:21:13;48.69;46.97;51.63;;
60031;Laerm;45901;47.600;9.890;2022-12-20T05:23:58;48.52;46.40;51.86;;
60031;Laerm;45901;47.600;9.890;2022-12-20T05:26:43;48.32;46.62;51.26;;
60031;Laerm;45901;47.600;9.890;2022-12-20T05:29:10;48.31;46.59;50.90;;
60031;Laerm;45901;47.600;9.890;2022-12-20T05:31:38;48.62;46.59;54.41;;
60031;Laerm;45901;47.600;9.890;2022-12-20T05:34:06;49.41;47.02;53.19;;
60031;Laerm;45901;47.600;9.890;2022-12-20T05:36:33;49.29;46.45;53.47;;
60031;Laerm;45901;47.600;9.890;2022-12-20T05:39:00;48.48;46.64;52.36;;
60031;Laerm;45901;47.600;9.890;2022-12-20T05:41:28;48.65;46.69;54.52;;
60031;Laerm;45901;47.600;9.890;2022-12-20T05:43:55;48.31;46.52;52.48;;
60031;Laerm;45901;47.600;9.890;2022-12-20T05:46:22;48.49;46.48;53.49;;
60031;Laerm;45901;47.600;9.890;2022-12-20T05:48:51;48.24;46.40;51.84;;
60031;Laerm;45901;47.600;9.890;2022-12-20T05:51:18;48.43;46.45;55.21;;
60031;Laerm;45901;47.600;9.890;2022-12-20T05:53:46;48.66;46.78;54.94;;
60031;Laerm;45901;47.600;9.890;2022-12-20T05:56:13;48.69;47.06;50.81;;
60031;Laerm;45901;47.600;9.890;2022-12-20T05:58:40;48.83;47.02;52.53;;
60031;Laerm;45901;47.600;9.890;2022-12-20T06:01:08;48.47;46.69;52.35;;
60031;Laerm;45901;47.600;9.890;2022-12-20T06:03:36;48.27;46.57;51.42;;
60031;Laerm;45901;47.600;9.890;2022-12-20T06:06:06;48.15;46.55;51.34;;
60031;Laerm;45901;47.600;9.890;2022-12-20T06:08:33;48.49;46.54;51.61;;
60031;Laerm;45901;47.600;9.890;2022-12-20T06:11:01;48.17;46.59;50.62;;
60031;Laerm;45901;47.600;9.890;2022-12-20T06:13:29;48.00;46.45;50.23;;
60031;Laerm;45901;47.600;9.890;2022-12-20T06:15:57;48.36;46.50;52.60;;
60031;Laerm;45901;47.600;9.890;2022-12-20T06:18:25;48.41;46.57;56.78;;
60031;Laerm;45901;47.600;9.890;2022-12-20T06:20:53;48.50;46.50;54.63;;
60031;Laerm;45901;47.600;9.890;2022-12-20T06:23:21;48.26;46.64;50.63;;
60031;Laerm;45901;47.600;9.890;2022-12-20T06:25:49;48.44;46.66;51.50;;
60031;Laerm;45901;47.600;9.890;2022-12-20T06:28:16;48.95;46.71;51.31;;
60031;Laerm;45901;47.600;9.890;2022-12-20T06:30:52;48.39;46.69;51.11;;
60031;Laerm;45901;47.600;9.890;2022-12-20T06:33:19;48.44;46.40;54.59;;
60031;Laerm;45901;47.600;9.890;2022-12-20T06:35:48;48.78;46.71;52.58;;
60031;Laerm;45901;47.600;9.890;2022-12-20T06:38:16;48.48;46.64;59.11;;
60031;Laerm;45901;47.600;9.890;2022-12-20T06:40:44;48.08;46.45;51.70;;
60031;Laerm;45901;47.600;9.890;2022-12-20T06:43:11;48.94;46.62;53.45;;
60031;Laerm;45901;47.600;9.890;2022-12-20T06:45:39;51.20;46.91;54.97;;
60031;Laerm;45901;47.600;9.890;2022-12-20T06:48:07;51.25;46.56;56.07;;
60031;Laerm;45901;47.600;9.890;2022-12-20T06:50:34;48.20;46.52;51.79;;
60031;Laerm;45901;47.600;9.890;2022-12-20T06:53:01;48.20;46.50;52.19;;
60031;Laerm;45901;47.600;9.890;2022-12-20T06:55:28;48.14;46.57;50.55;;
60031;Laerm;45901;47.600;9.890;2022-12-20T06:57:57;48.10;46.40;50.88;;
60031;Laerm;45901;47.600;9.890;2022-12-20T07:00:24;48.16;46.30;50.89;;
60031;Laerm;45901;47.600;9.890;2022-12-20T07:02:52;48.21;46.30;50.79;;
60031;Laerm;45901;47.600;9.890;2022-12-20T07:05:19;48.14;46.57;50.38;;
60031;Laerm;45901;47.600;9.890;2022-12-20T07:07:46;48.11;46.50;50.35;;
60031;Laerm;45901;47.600;9.890;2022-12-20T07:10:14;48.12;45.99;50.32;;
60031;Laerm;45901;47.600;9.890;2022-12-20T07:12:41;48.09;46.64;50.52;;
60031;Laerm;45901;47.600;9.890;2022-12-20T07:15:10;48.14;46.56;50.56;;
60031;Laerm;45901;47.600;9.890;2022-12-20T07:17:37;48.14;46.45;50.74;;
60031;Laerm;45901;47.600;9.890;2022-12-20T07:20:06;48.11;46.48;51.56;;
60031;Laerm;45901;47.600;9.890;2022-12-20T07:22:33;48.14;46.38;51.30;;
60031;Laerm;45901;47.600;9.890;2022-12-20T07:25:01;48.16;46.59;50.94;;
60031;Laerm;45901;47.600;9.890;2022-12-20T07:27:28;48.18;46.59;51.16;;
60031;Laerm;45901;47.600;9.890;2022-12-20T07:29:55;48.16;46.48;50.68;;
60031;Laerm;45901;47.600;9.890;2022-12-20T07:32:24;48.12;46.40;50.80;;
60031;Laerm;45901;47.600;9.890;2022-12-20T07:34:51;48.08;46.35;50.92;;
60031;Laerm;45901;47.600;9.890;2022-12-20T07:37:19;48.09;46.52;51.44;;
60031;Laerm;45901;47.600;9.890;2022-12-20T07:39:46;48.08;46.40;51.30;;
60031;Laerm;45901;47.600;9.890;2022-12-20T07:42:13;48.14;46.52;51.39;;
60031;Laerm;45901;47.600;9.890;2022-12-20T07:44:41;48.14;46.25;50.67;;
60031;Laerm;45901;47.600;9.890;2022-12-20T07:47:08;48.08;46.36;50.56;;
60031;Laerm;45901;47.600;9.890;2022-12-20T07:49:37;48.11;46.48;50.51;;
60031;Laerm;45901;47.600;9.890;2022-12-20T07:52:05;48.03;46.33;50.50;;
60031;Laerm;45901;47.600;9.890;2022-12-20T07:54:40;48.02;46.33;50.52;;
60031;Laerm;45901;47.600;9.890;2022-12-20T07:57:14;48.00;46.38;50.56;;
60031;Laerm;45901;47.600;9.890;2022-12-20T07:59:47;48.11;46.59;50.62;;
60031;Laerm;45901;47.600;9.890;2022-12-20T08:02:21;48.28;46.55;50.83;;
60031;Laerm;45901;47.600;9.890;2022-12-20T08:04:52;48.20;46.64;50.23;;
60031;Laerm;45901;47.600;9.890;2022-12-20T08:07:21;48.42;46.73;50.57;;
60031;Laerm;45901;47.600;9.890;2022-12-20T08:09:49;48.29;46.73;50.56;;
60031;Laerm;45901;47.600;9.890;2022-12-20T08:12:18;48.26;46.57;50.41;;
60031;Laerm;45901;47.600;9.890;2022-12-20T08:14:46;48.39;46.45;50.79;;
60031;Laerm;45901;47.600;9.890;2022-12-20T08:17:17;48.36;46.69;50.94;;
60031;Laerm;45901;47.600;9.890;2022-12-20T08:19:44;48.33;46.62;51.23;;
60031;Laerm;45901;47.600;9.890;2022-12-20T08:22:13;48.29;46.62;50.31;;
60031;Laerm;45901;47.600;9.890;2022-12-20T08:24:41;48.35;46.71;50.60;;
60031;Laerm;45901;47.600;9.890;2022-12-20T08:27:14;48.36;46.48;50.63;;
60031;Laerm;45901;47.600;9.890;2022-12-20T08:29:41;48.33;46.43;57.36;;
60031;Laerm;45901;47.600;9.890;2022-12-20T08:32:09;48.69;46.78;56.71;;
60031;Laerm;45901;47.600;9.890;2022-12-20T08:34:38;48.35;46.66;51.06;;
60031;Laerm;45901;47.600;9.890;2022-12-20T08:37:05;48.36;46.59;51.87;;
60031;Laerm;45901;47.600;9.890;2022-12-20T08:39:33;48.24;46.50;51.42;;
60031;Laerm;45901;47.600;9.890;2022-12-20T08:42:04;49.18;46.40;54.90;;
60031;Laerm;45901;47.600;9.890;2022-12-20T08:44:31;48.99;46.62;51.73;;
60031;Laerm;45901;47.600;9.890;2022-12-20T08:46:59;49.15;46.87;56.68;;
60031;Laerm;45901;47.600;9.890;2022-12-20T08:49:26;48.60;46.25;52.89;;
60031;Laerm;45901;47.600;9.890;2022-12-20T08:51:54;48.48;46.38;53.24;;
60031;Laerm;45901;47.600;9.890;2022-12-20T08:54:21;48.18;46.71;50.46;;
60031;Laerm;45901;47.600;9.890;2022-12-20T08:56:50;48.23;46.64;50.71;;
60031;Laerm;45901;47.600;9.890;2022-12-20T08:59:18;48.49;46.64;53.39;;
60031;Laerm;45901;47.600;9.890;2022-12-20T09:01:45;48.08;46.34;51.56;;
60031;Laerm;45901;47.600;9.890;2022-12-20T09:04:12;48.44;46.38;52.86;;
60031;Laerm;45901;47.600;9.890;2022-12-20T09:06:43;48.05;46.43;51.88;;
60031;Laerm;45901;47.600;9.890;2022-12-20T09:10:37;48.12;46.43;53.13;;
60031;Laerm;45901;47.600;9.890;2022-12-20T09:13:31;49.82;46.43;59.38;;
60031;Laerm;45901;47.600;9.890;2022-12-20T09:16:15;49.98;46.84;53.62;;
60031;Laerm;45901;47.600;9.890;2022-12-20T09:18:43;48.56;46.45;53.64;;
60031;Laerm;45901;47.600;9.890;2022-12-20T09:21:26;48.37;46.55;51.21;;
60031;Laerm;45901;47.600;9.890;2022-12-20T09:27:54;48.73;46.64;54.27;;
60031;Laerm;45901;47.600;9.890;2022-12-20T09:30:23;48.38;46.52;51.99;;
60031;Laerm;45901;47.600;9.890;2022-12-20T09:33:05;48.00;46.55;50.65;;
60031;Laerm;45901;47.600;9.890;2022-12-20T09:35:33;48.06;46.43;50.41;;
60031;Laerm;45901;47.600;9.890;2022-12-20T09:38:00;48.22;46.52;50.13;;
60031;Laerm;45901;47.600;9.890;2022-12-20T09:40:30;48.23;46.62;50.16;;
60031;Laerm;45901;47.600;9.890;2022-12-20T09:42:58;48.80;46.89;56.38;;
60031;Laerm;45901;47.600;9.890;2022-12-20T09:45:31;49.28;46.61;53.38;;
60031;Laerm;45901;47.600;9.890;2022-12-20T09:48:01;48.89;46.76;53.74;;
60031;Laerm;45901;47.600;9.890;2022-12-20T09:50:48;51.44;46.97;57.50;;
60031;Laerm;45901;47.600;9.890;2022-12-20T09:53:30;51.92;46.84;56.59;;
60031;Laerm;45901;47.600;9.890;2022-12-20T09:56:08;48.91;46.97;52.59;;
60031;Laerm;45901;47.600;9.890;2022-12-20T09:58:57;48.85;46.80;54.12;;
60031;Laerm;45901;47.600;9.890;2022-12-20T10:01:28;51.55;47.32;57.00;;
60031;Laerm;45901;47.600;9.890;2022-12-20T10:03:58;50.56;46.48;59.46;;
60031;Laerm;45901;47.600;9.890;2022-12-20T10:06:39;48.76;46.38;51.99;;
60031;Laerm;45901;47.600;9.890;2022-12-20T10:09:20;48.64;46.45;53.57;;
60031;Laerm;45901;47.600;9.890;2022-12-20T10:12:02;49.39;46.57;58.11;;
60031;Laerm;45901;47.600;9.890;2022-12-20T10:15:03;48.06;46.33;52.91;;
60031;Laerm;45901;47.600;9.890;2022-12-20T10:17:49;48.15;46.52;51.80;;
60031;Laerm;45901;47.600;9.890;2022-12-20T10:20:30;48.28;46.52;52.47;;
60031;Laerm;45901;47.600;9.890;2022-12-20T10:23:03;48.83;46.28;53.64;;
60031;Laerm;45901;47.600;9.890;2022-12-20T10:25:35;49.19;46.64;51.43;;
60031;Laerm;45901;47.600;9.890;2022-12-20T10:28:11;49.50;46.76;54.22;;
60031;Laerm;45901;47.600;9.890;2022-12-20T10:31:22;48.85;46.45;55.74;;
60031;Laerm;45901;47.600;9.890;2022-12-20T10:34:10;48.54;46.76;50.50;;
60031;Laerm;45901;47.600;9.890;2022-12-20T10:36:44;48.63;46.52;51.10;;
60031;Laerm;45901;47.600;9.890;2022-12-20T10:39:21;49.69;46.76;55.94;;
60031;Laerm;45901;47.600;9.890;2022-12-20T10:42:29;48.53;46.57;51.91;;
60031;Laerm;45901;47.600;9.890;2022-12-20T11:01:55;48.69;46.87;52.08;;
60031;Laerm;45901;47.600;9.890;2022-12-20T11:04:34;48.36;46.43;52.14;;
60031;Laerm;45901;47.600;9.890;2022-12-20T11:07:21;48.22;46.40;50.63;;
60031;Laerm;45901;47.600;9.890;2022-12-20T11:09:54;48.01;46.28;50.10;;
60031;Laerm;45901;47.600;9.890;2022-12-20T11:12:24;47.89;46.25;49.81;;
60031;Laerm;45901;47.600;9.890;2022-12-20T11:15:09;48.02;46.48;52.59;;
60031;Laerm;45901;47.600;9.890;2022-12-20T11:17:43;47.95;46.43;50.14;;
60031;Laerm;45901;47.600;9.890;2022-12-20T11:23:51;48.15;46.35;50.19;;
60031;Laerm;45901;47.600;9.890;2022-12-20T11:27:15;48.58;46.95;50.68;;
60031;Laerm;45901;47.600;9.890;2022-12-20T11:30:16;48.28;46.69;51.30;;
60031;Laerm;45901;47.600;9.890;2022-12-20T11:33:32;48.30;46.52;50.70;;
60031;Laerm;45901;47.600;9.890;2022-12-20T11:36:05;48.43;46.62;50.59;;
60031;Laerm;45901;47.600;9.890;2022-12-20T11:38:41;48.27;46.71;50.26;;
60031;Laerm;45901;47.600;9.890;2022-12-20T11:41:20;48.37;46.78;51.58;;
60031;Laerm;45901;47.600;9.890;2022-12-20T11:44:04;48.18;46.45;50.08;;
60031;Laerm;45901;47.600;9.890;2022-12-20T11:46:55;48.38;46.66;51.20;;
60031;Laerm;45901;47.600;9.890;2022-12-20T11:49:56;48.18;46.59;51.74;;
60031;Laerm;45901;47.600;9.890;2022-12-20T11:52:35;48.41;46.87;50.40;;
60031;Laerm;45901;47.600;9.890;2022-12-20T11:55:16;48.40;46.69;50.59;;
60031;Laerm;45901;47.600;9.890;2022-12-20T11:57:59;48.30;46.73;50.85;;
60031;Laerm;45901;47.600;9.890;2022-12-20T12:00:31;48.21;46.59;50.44;;
60031;Laerm;45901;47.600;9.890;2022-12-20T12:03:11;48.25;46.59;50.34;;
60031;Laerm;45901;47.600;9.890;2022-12-20T12:05:51;48.07;46.55;50.32;;
60031;Laerm;45901;47.600;9.890;2022-12-20T12:09:19;47.95;46.45;50.25;;
60031;Laerm;45901;47.600;9.890;2022-12-20T12:12:04;48.23;46.43;50.30;;
60031;Laerm;45901;47.600;9.890;2022-12-20T12:14:45;48.06;46.57;50.12;;
60031;Laerm;45901;47.600;9.890;2022-12-20T12:17:22;47.96;46.59;50.01;;
60031;Laerm;45901;47.600;9.890;2022-12-20T12:19:55;47.94;46.55;50.40;;
60031;Laerm;45901;47.600;9.890;2022-12-20T12:22:33;48.10;46.59;50.43;;
60031;Laerm;45901;47.600;9.890;2022-12-20T12:25:05;48.19;46.48;54.27;;
60031;Laerm;45901;47.600;9.890;2022-12-20T12:27:35;49.60;46.50;51.72;;
60031;Laerm;45901;47.600;9.890;2022-12-20T12:30:02;48.98;47.00;51.76;;
60031;Laerm;45901;47.600;9.890;2022-12-20T12:32:35;49.00;47.02;52.99;;
60031;Laerm;45901;47.600;9.890;2022-12-20T12:35:22;48.64;46.95;52.05;;
60031;Laerm;45901;47.600;9.890;2022-12-20T12:38:14;48.98;47.26;51.60;;
60031;Laerm;45901;47.600;9.890;2022-12-20T12:41:09;49.15;47.18;52.04;;
60031;Laerm;45901;47.600;9.890;2022-12-20T12:43:49;51.25;46.82;55.92;;
60031;Laerm;45901;47.600;9.890;2022-12-20T12:46:23;49.27;46.73;54.89;;
60031;Laerm;45901;47.600;9.890;2022-12-20T12:48:58;48.28;46.38;50.99;;
60031;Laerm;45901;47.600;9.890;2022-12-20T12:51:30;49.17;46.62;51.47;;
60031;Laerm;45901;47.600;9.890;2022-12-20T12:54:16;49.67;47.81;51.47;;
60031;Laerm;45901;47.600;9.890;2022-12-20T12:56:45;49.52;47.67;52.00;;
60031;Laerm;45901;47.600;9.890;2022-12-20T12:59:40;50.64;48.51;56.90;;
60031;Laerm;45901;47.600;9.890;2022-12-20T13:02:33;50.38;47.90;53.33;;
60031;Laerm;45901;47.600;9.890;2022-12-20T13:05:30;49.46;47.03;51.89;;
60031;Laerm;45901;47.600;9.890;2022-12-20T13:07:59;48.52;46.82;50.60;;
60031;Laerm;45901;47.600;9.890;2022-12-20T13:11:11;48.96;47.36;51.19;;
60031;Laerm;45901;47.600;9.890;2022-12-20T13:13:38;49.25;47.48;51.47;;
60031;Laerm;45901;47.600;9.890;2022-12-20T13:16:12;49.02;47.36;50.66;;
60031;Laerm;45901;47.600;9.890;2022-12-20T13:19:10;49.04;47.40;50.89;;
60031;Laerm;45901;47.600;9.890;2022-12-20T13:21:40;49.19;47.57;51.29;;
60031;Laerm;45901;47.600;9.890;2022-12-20T13:24:52;49.19;47.67;51.47;;
60031;Laerm;45901;47.600;9.890;2022-12-20T13:27:34;49.91;47.70;53.20;;
60031;Laerm;45901;47.600;9.890;2022-12-20T13:30:26;50.37;48.80;52.29;;
60031;Laerm;45901;47.600;9.890;2022-12-20T13:36:28;49.71;47.76;52.28;;
60031;Laerm;45901;47.600;9.890;2022-12-20T13:39:00;49.91;47.76;51.91;;
60031;Laerm;45901;47.600;9.890;2022-12-20T13:41:40;49.71;46.71;54.11;;
60031;Laerm;45901;47.600;9.890;2022-12-20T13:44:39;49.97;46.89;52.79;;
60031;Laerm;45901;47.600;9.890;2022-12-20T13:47:37;49.61;47.30;53.15;;
60031;Laerm;45901;47.600;9.890;2022-12-20T13:50:30;49.78;47.10;53.64;;
60031;Laerm;45901;47.600;9.890;2022-12-20T13:53:01;48.54;46.40;54.56;;
60031;Laerm;45901;47.600;9.890;2022-12-20T13:55:36;52.49;47.00;58.30;;
60031;Laerm;45901;47.600;9.890;2022-12-20T13:58:14;49.42;46.62;57.19;;
60031;Laerm;45901;47.600;9.890;2022-12-20T14:00:43;48.66;46.59;53.43;;
60031;Laerm;45901;47.600;9.890;2022-12-20T14:03:25;49.16;47.04;51.50;;
60031;Laerm;45901;47.600;9.890;2022-12-20T14:05:57;49.27;47.26;52.54;;
60031;Laerm;45901;47.600;9.890;2022-12-20T14:08:28;48.94;46.97;51.56;;
60031;Laerm;45901;47.600;9.890;2022-12-20T14:11:08;48.46;46.64;50.94;;
60031;Laerm;45901;47.600;9.890;2022-12-20T14:13:35;48.42;46.52;51.32;;
60031;Laerm;45901;47.600;9.890;2022-12-20T14:16:12;48.27;46.40;52.51;;
60031;Laerm;45901;47.600;9.890;2022-12-20T14:18:40;49.77;46.52;55.32;;
60031;Laerm;45901;47.600;9.890;2022-12-20T14:21:09;48.91;46.64;53.31;;
60031;Laerm;45901;47.600;9.890;2022-12-20T14:23:39;49.25;47.42;52.04;;
60031;Laerm;45901;47.600;9.890;2022-12-20T14:26:11;49.79;47.26;51.96;;
60031;Laerm;45901;47.600;9.890;2022-12-20T14:28:44;49.54;46.93;52.76;;
60031;Laerm;45901;47.600;9.890;2022-12-20T14:31:39;50.94;47.24;56.12;;
60031;Laerm;45901;47.600;9.890;2022-12-20T14:34:23;51.65;47.26;57.12;;
60031;Laerm;45901;47.600;9.890;2022-12-20T14:36:51;50.08;46.40;55.87;;
60031;Laerm;45901;47.600;9.890;2022-12-20T14:39:29;48.75;46.80;56.34;;
60031;Laerm;45901;47.600;9.890;2022-12-20T14:41:59;55.22;46.40;64.31;;
60031;Laerm;45901;47.600;9.890;2022-12-20T14:44:31;57.60;46.55;63.44;;
60031;Laerm;45901;47.600;9.890;2022-12-20T14:47:14;58.04;47.02;65.33;;